createdAt,value
2023-05-10T00:01:49.766Z,14.43
2023-05-10T00:04:18.299Z,14.57
2023-05-10T00:06:50.554Z,14.25
2023-05-10T00:09:18.590Z,16.10
2023-05-10T00:11:46.668Z,17.40
2023-05-10T00:14:14.725Z,17.90
2023-05-10T00:16:42.881Z,18.38
2023-05-10T00:19:10.996Z,17.10
2023-05-10T00:21:39.039Z,18.63
2023-05-10T00:24:08.856Z,18.20
2023-05-10T00:26:36.975Z,20.42
2023-05-10T00:29:05.028Z,21.00
2023-05-10T00:31:33.168Z,22.80
2023-05-10T00:34:01.287Z,22.27
2023-05-10T00:36:29.749Z,23.73
2023-05-10T00:38:57.915Z,23.63
2023-05-10T00:41:27.554Z,25.20
2023-05-10T00:43:55.697Z,24.25
2023-05-10T00:46:23.932Z,25.77
2023-05-10T00:48:52.243Z,25.65
2023-05-10T00:51:20.626Z,26.83
2023-05-10T00:53:49.422Z,26.13
2023-05-10T00:56:17.945Z,27.40
2023-05-10T00:58:47.490Z,26.70
2023-05-10T01:01:16.094Z,27.63
2023-05-10T01:03:44.434Z,26.58
2023-05-10T01:06:12.634Z,27.75
2023-05-10T01:08:41.282Z,27.70
2023-05-10T01:11:09.380Z,27.08
2023-05-10T01:13:40.539Z,27.98
2023-05-10T01:16:10.365Z,28.23
2023-05-10T01:18:41.545Z,27.25
2023-05-10T01:21:23.350Z,27.65
2023-05-10T01:24:23.840Z,29.58
2023-05-10T01:27:17.499Z,26.98
2023-05-10T01:30:33.258Z,25.85
2023-05-10T01:33:04.283Z,29.58
2023-05-10T01:35:42.609Z,27.60
2023-05-10T01:38:19.430Z,29.35
2023-05-10T01:40:59.422Z,28.55
2023-05-10T01:43:33.157Z,29.67
2023-05-10T01:46:11.355Z,30.70
2023-05-10T01:48:47.312Z,30.02
2023-05-10T01:51:22.169Z,28.08
2023-05-10T01:53:51.339Z,26.60
2023-05-10T01:56:22.346Z,26.65
2023-05-10T01:58:52.028Z,27.63
2023-05-10T02:01:23.740Z,25.67
2023-05-10T02:03:53.882Z,26.20
2023-05-10T02:06:24.320Z,26.95
2023-05-10T02:08:55.020Z,27.15
2023-05-10T02:11:23.692Z,25.80
2023-05-10T02:13:53.854Z,25.17
2023-05-10T02:16:26.992Z,25.75
2023-05-10T02:18:58.206Z,24.92
2023-05-10T02:21:27.321Z,25.48
2023-05-10T02:23:57.152Z,26.00
2023-05-10T02:26:27.078Z,24.25
2023-05-10T02:28:56.938Z,24.95
2023-05-10T02:31:25.807Z,23.92
2023-05-10T02:33:55.557Z,25.63
2023-05-10T02:36:25.480Z,26.38
2023-05-10T02:38:54.817Z,25.75
2023-05-10T02:41:24.589Z,24.98
2023-05-10T02:43:54.534Z,25.40
2023-05-10T02:46:22.605Z,26.15
2023-05-10T02:48:50.948Z,26.55
2023-05-10T02:51:21.678Z,26.40
2023-05-10T02:53:52.913Z,26.33
2023-05-10T02:56:27.801Z,26.10
2023-05-10T02:58:55.949Z,26.58
2023-05-10T03:01:24.166Z,27.58
2023-05-10T03:03:52.215Z,26.90
2023-05-10T03:06:20.240Z,27.67
2023-05-10T03:08:48.472Z,27.88
2023-05-10T03:11:45.821Z,28.55
2023-05-10T03:14:28.319Z,29.90
2023-05-10T03:17:02.609Z,29.13
2023-05-10T03:19:35.378Z,29.70
2023-05-10T03:24:41.486Z,29.83
2023-05-10T03:27:11.678Z,30.42
2023-05-10T03:29:40.535Z,29.17
2023-05-10T03:32:11.664Z,30.53
2023-05-10T03:34:44.864Z,31.38
2023-05-10T03:37:12.922Z,31.27
2023-05-10T03:39:43.267Z,31.60
2023-05-10T03:42:13.153Z,30.50
2023-05-10T03:44:58.328Z,30.13
2023-05-10T03:47:28.196Z,29.65
2023-05-10T03:49:56.327Z,31.60
2023-05-10T03:52:24.503Z,33.35
2023-05-10T03:54:55.553Z,33.03
2023-05-10T03:57:28.126Z,32.42
2023-05-10T03:59:56.194Z,31.80
2023-05-10T04:02:24.445Z,31.90
2023-05-10T04:04:52.572Z,33.45
2023-05-10T04:07:20.684Z,32.28
2023-05-10T04:09:52.147Z,30.88
2023-05-10T04:12:20.279Z,29.80
2023-05-10T04:14:49.693Z,32.33
2023-05-10T04:17:17.876Z,31.80
2023-05-10T04:19:45.920Z,30.48
2023-05-10T04:22:13.989Z,31.10
2023-05-10T04:24:42.032Z,31.30
2023-05-10T04:27:13.477Z,28.98
2023-05-10T04:29:42.595Z,31.67
2023-05-10T04:32:12.218Z,29.48
2023-05-10T04:34:40.380Z,28.98
2023-05-10T04:37:08.572Z,27.65
2023-05-10T04:39:37.346Z,28.80
2023-05-10T04:42:06.709Z,26.90
2023-05-10T04:44:34.803Z,26.30
2023-05-10T04:47:05.916Z,25.83
2023-05-10T04:49:35.304Z,26.02
2023-05-10T04:52:06.430Z,27.25
2023-05-10T04:54:34.506Z,28.55
2023-05-10T04:57:02.571Z,27.60
2023-05-10T04:59:30.602Z,27.10
2023-05-10T05:01:58.780Z,27.15
2023-05-10T05:04:26.928Z,27.27
2023-05-10T05:06:58.591Z,26.85
2023-05-10T05:09:26.729Z,27.70
2023-05-10T05:11:54.906Z,27.27
2023-05-10T05:14:22.989Z,25.42
2023-05-10T05:16:54.218Z,27.67
2023-05-10T05:19:22.531Z,26.80
2023-05-10T05:21:50.748Z,27.77
2023-05-10T05:24:20.239Z,27.35
2023-05-10T05:26:48.374Z,28.13
2023-05-10T05:29:18.752Z,27.13
2023-05-10T05:31:46.858Z,26.15
2023-05-10T05:34:15.062Z,27.73
2023-05-10T05:36:43.328Z,27.80
2023-05-10T05:39:14.387Z,26.83
2023-05-10T05:41:43.855Z,27.38
2023-05-10T05:44:12.128Z,27.17
2023-05-10T05:46:40.123Z,26.48
2023-05-10T05:49:08.181Z,26.60
2023-05-10T05:51:36.624Z,26.25
2023-05-10T05:54:05.412Z,26.50
2023-05-10T05:56:33.486Z,26.15
2023-05-10T05:59:03.015Z,27.60
2023-05-10T06:01:31.611Z,27.17
2023-05-10T06:03:59.845Z,26.77
2023-05-10T06:06:30.966Z,27.45
2023-05-10T06:08:59.072Z,25.70
2023-05-10T06:11:28.103Z,24.83
2023-05-10T06:13:56.194Z,24.48
2023-05-10T06:16:28.508Z,26.95
2023-05-10T06:18:56.706Z,27.25
2023-05-10T06:21:24.808Z,27.42
2023-05-10T06:23:53.267Z,27.92
2023-05-10T06:26:21.946Z,26.55
2023-05-10T06:28:49.992Z,26.83
2023-05-10T06:31:18.284Z,27.60
2023-05-10T06:33:47.860Z,26.48
2023-05-10T06:36:18.228Z,28.00
2023-05-10T06:38:48.702Z,27.70
2023-05-10T06:41:16.935Z,27.15
2023-05-10T06:43:45.009Z,28.80
2023-05-10T06:46:13.153Z,28.13
2023-05-10T06:48:43.898Z,26.30
2023-05-10T06:51:13.362Z,27.00
2023-05-10T06:53:41.614Z,27.35
2023-05-10T06:56:09.691Z,26.50
2023-05-10T06:58:37.798Z,29.05
2023-05-10T07:01:07.063Z,28.30
2023-05-10T07:03:36.123Z,26.30
2023-05-10T07:06:05.427Z,27.20
2023-05-10T07:08:35.126Z,26.45
2023-05-10T07:11:04.432Z,26.50
2023-05-10T07:13:33.241Z,26.20
2023-05-10T07:16:03.076Z,26.17
2023-05-10T07:18:31.220Z,27.63
2023-05-10T07:20:59.751Z,27.00
2023-05-10T07:23:28.155Z,28.55
2023-05-10T07:25:58.446Z,27.77
2023-05-10T07:28:26.805Z,29.02
2023-05-10T07:30:54.875Z,27.45
2023-05-10T07:33:22.995Z,28.00
2023-05-10T07:35:52.200Z,29.60
2023-05-10T07:38:20.274Z,29.42
2023-05-10T07:40:48.272Z,29.38
2023-05-10T07:43:17.677Z,30.00
2023-05-10T07:45:45.841Z,32.42
2023-05-10T07:48:13.968Z,32.13
2023-05-10T07:50:42.065Z,32.85
2023-05-10T07:53:10.094Z,31.13
2023-05-10T07:55:38.234Z,30.42
2023-05-10T07:58:09.346Z,31.10
2023-05-10T08:00:40.556Z,30.77
2023-05-10T08:03:08.768Z,30.45
2023-05-10T08:05:36.864Z,31.15
2023-05-10T08:08:05.074Z,30.67
2023-05-10T08:10:33.461Z,28.50
2023-05-10T08:13:01.586Z,28.33
2023-05-10T08:15:29.645Z,27.38
2023-05-10T08:17:59.161Z,26.73
2023-05-10T08:20:29.806Z,27.65
2023-05-10T08:23:01.187Z,28.25
2023-05-10T08:25:29.417Z,29.02
2023-05-10T08:27:57.615Z,25.27
2023-05-10T08:30:25.717Z,24.13
2023-05-10T08:32:54.003Z,23.60
2023-05-10T08:35:23.554Z,22.13
2023-05-10T08:37:51.700Z,23.05
2023-05-10T08:40:21.899Z,21.38
2023-05-10T08:43:02.698Z,20.77
2023-05-10T08:45:35.321Z,18.52
2023-05-10T08:48:04.720Z,15.90
2023-05-10T08:50:35.882Z,15.95
2023-05-10T08:53:06.631Z,16.77
2023-05-10T08:55:37.717Z,18.52
2023-05-10T08:58:06.135Z,17.17
2023-05-10T09:00:34.446Z,18.65
2023-05-10T09:03:03.430Z,18.17
2023-05-10T09:05:31.562Z,16.75
2023-05-10T09:08:01.589Z,16.45
2023-05-10T09:10:31.530Z,15.68
2023-05-10T09:13:00.064Z,14.55
2023-05-10T09:15:28.148Z,11.88
2023-05-10T09:17:56.984Z,12.68
2023-05-10T09:20:25.175Z,11.63
2023-05-10T09:22:53.229Z,11.23
2023-05-10T09:25:23.662Z,9.70
2023-05-10T09:27:52.081Z,8.40
2023-05-10T09:30:26.526Z,8.88
2023-05-10T09:32:55.777Z,8.18
2023-05-10T09:35:28.716Z,8.55
2023-05-10T09:38:00.180Z,8.82
2023-05-10T09:40:31.096Z,7.68
2023-05-10T09:43:00.380Z,7.20
2023-05-10T09:45:29.819Z,6.90
2023-05-10T09:47:58.347Z,6.78
2023-05-10T09:50:27.109Z,6.65
2023-05-10T09:52:58.819Z,6.60
2023-05-10T09:55:40.918Z,6.55
2023-05-10T09:58:11.818Z,6.37
2023-05-10T10:00:41.780Z,6.38
2023-05-10T10:03:16.359Z,6.95
2023-05-10T10:05:46.075Z,7.18
2023-05-10T10:08:15.166Z,6.57
2023-05-10T10:10:46.512Z,6.45
2023-05-10T10:13:15.306Z,6.72
2023-05-10T10:15:45.145Z,6.05
2023-05-10T10:18:16.397Z,5.82
2023-05-10T10:20:45.077Z,6.28
2023-05-10T10:23:14.176Z,6.55
2023-05-10T10:25:46.170Z,6.10
2023-05-10T10:28:28.018Z,5.57
2023-05-10T10:30:58.578Z,5.53
2023-05-10T10:33:57.994Z,6.00
2023-05-10T10:36:28.158Z,6.38
2023-05-10T10:39:04.256Z,5.90
2023-05-10T10:41:35.672Z,6.40
2023-05-10T10:44:35.946Z,6.55
2023-05-10T10:47:07.005Z,6.28
2023-05-10T10:49:39.376Z,6.47
2023-05-10T10:52:32.041Z,6.95
2023-05-10T10:55:02.595Z,7.15
2023-05-10T10:57:34.248Z,7.88
2023-05-10T11:00:21.922Z,7.60
2023-05-10T11:02:52.558Z,7.05
2023-05-10T11:05:42.509Z,7.28
2023-05-10T11:08:18.798Z,7.55
2023-05-10T11:10:55.525Z,7.57
2023-05-10T11:13:31.789Z,7.65
2023-05-10T11:16:00.585Z,8.10
2023-05-10T11:18:31.044Z,7.75
2023-05-10T11:21:01.148Z,7.50
2023-05-10T11:23:34.747Z,7.13
2023-05-10T11:26:03.266Z,7.50
2023-05-10T11:28:32.885Z,8.10
2023-05-10T11:31:01.138Z,7.22
2023-05-10T11:33:29.171Z,7.40
2023-05-10T11:35:57.600Z,7.45
2023-05-10T11:38:25.793Z,7.63
2023-05-10T11:40:55.428Z,7.47
2023-05-10T11:43:29.212Z,7.70
2023-05-10T11:45:58.913Z,7.30
2023-05-10T11:48:27.132Z,8.07
2023-05-10T11:50:58.073Z,6.93
2023-05-10T11:53:28.955Z,7.43
2023-05-10T11:55:59.183Z,6.90
2023-05-10T11:58:27.286Z,6.38
2023-05-10T12:00:55.527Z,6.78
2023-05-10T12:03:25.327Z,6.93
2023-05-10T12:05:53.801Z,6.88
2023-05-10T12:08:24.434Z,6.22
2023-05-10T12:10:52.798Z,6.68
2023-05-10T12:13:22.389Z,6.18
2023-05-10T12:15:50.565Z,6.70
2023-05-10T12:18:26.698Z,6.20
2023-05-10T12:21:05.905Z,6.68
2023-05-10T12:23:33.999Z,5.75
2023-05-10T12:26:06.230Z,5.95
2023-05-10T12:28:35.143Z,6.50
2023-05-10T12:31:07.372Z,7.17
2023-05-10T12:33:42.673Z,6.63
2023-05-10T12:36:12.340Z,5.78
2023-05-10T12:38:45.093Z,5.80
2023-05-10T12:41:15.174Z,5.93
2023-05-10T12:43:43.725Z,6.30
2023-05-10T12:46:13.322Z,6.13
2023-05-10T12:48:44.310Z,6.53
2023-05-10T12:51:13.896Z,6.55
2023-05-10T12:53:45.148Z,6.20
2023-05-10T12:56:14.174Z,5.57
2023-05-10T12:58:42.275Z,5.10
2023-05-10T13:01:11.240Z,5.82
2023-05-10T13:03:39.365Z,5.10
2023-05-10T13:06:09.140Z,4.68
2023-05-10T13:08:37.208Z,4.55
2023-05-10T13:11:05.646Z,4.88
2023-05-10T13:13:33.691Z,5.00
2023-05-10T13:16:01.829Z,4.50
2023-05-10T13:18:29.918Z,4.55
2023-05-10T13:20:58.012Z,4.50
2023-05-10T13:23:27.567Z,4.90
2023-05-10T13:25:55.700Z,4.75
2023-05-10T13:28:23.757Z,4.95
2023-05-10T13:30:51.759Z,4.70
2023-05-10T13:33:19.818Z,5.10
2023-05-10T13:35:47.885Z,4.40
2023-05-10T13:38:15.941Z,4.65
2023-05-10T13:40:45.677Z,4.60
2023-05-10T13:43:13.738Z,4.82
2023-05-10T13:45:41.933Z,4.40
2023-05-10T13:48:10.015Z,4.22
2023-05-10T13:50:38.169Z,4.00
2023-05-10T13:53:08.933Z,3.92
2023-05-10T13:55:40.022Z,4.18
2023-05-10T13:58:09.956Z,5.45
2023-05-10T14:00:38.113Z,6.28
2023-05-10T14:03:07.551Z,5.95
2023-05-10T14:05:35.683Z,6.10
2023-05-10T14:08:06.195Z,6.10
2023-05-10T14:10:40.533Z,6.03
2023-05-10T14:13:09.976Z,6.00
2023-05-10T14:15:38.101Z,6.20
2023-05-10T14:18:06.349Z,5.78
2023-05-10T14:20:34.869Z,5.60
2023-05-10T14:23:02.992Z,6.25
2023-05-10T14:25:31.112Z,7.38
2023-05-10T14:27:59.298Z,7.13
2023-05-10T14:30:28.737Z,7.90
2023-05-10T14:32:59.541Z,7.40
2023-05-10T14:35:27.742Z,7.70
2023-05-10T14:37:56.148Z,7.15
2023-05-10T14:40:24.240Z,7.30
2023-05-10T14:42:53.908Z,7.20
2023-05-10T14:45:23.534Z,6.75
2023-05-10T14:47:53.551Z,7.50
2023-05-10T14:50:35.704Z,7.55
2023-05-10T14:53:04.941Z,7.60
2023-05-10T14:55:33.702Z,8.20
2023-05-10T14:58:01.897Z,8.20
2023-05-10T15:00:31.214Z,6.57
2023-05-10T15:03:01.407Z,4.82
2023-05-10T15:05:30.133Z,4.93
2023-05-10T15:07:58.529Z,4.45
2023-05-10T15:10:26.786Z,3.78
2023-05-10T15:12:54.878Z,4.43
2023-05-10T15:15:23.015Z,3.67
2023-05-10T15:17:51.173Z,3.10
2023-05-10T15:20:20.828Z,2.90
2023-05-10T15:22:48.874Z,2.92
2023-05-10T15:25:17.499Z,2.80
2023-05-10T15:27:45.655Z,3.03
2023-05-10T15:30:14.483Z,3.25
2023-05-10T15:32:43.861Z,2.60
2023-05-10T15:35:12.307Z,2.92
2023-05-10T15:37:41.726Z,2.53
2023-05-10T15:40:13.530Z,2.60
2023-05-10T15:42:41.648Z,2.58
2023-05-10T15:45:11.425Z,2.55
2023-05-10T15:47:40.560Z,2.15
2023-05-10T15:50:09.739Z,2.08
2023-05-10T15:52:42.296Z,1.60
2023-05-10T15:55:13.839Z,1.77
2023-05-10T15:57:42.936Z,1.70
2023-05-10T16:00:12.737Z,1.50
2023-05-10T16:02:41.065Z,1.58
2023-05-10T16:05:10.914Z,1.40
2023-05-10T16:07:39.846Z,1.60
2023-05-10T16:10:11.446Z,1.70
2023-05-10T16:12:39.691Z,1.80
2023-05-10T16:15:10.886Z,1.70
2023-05-10T16:17:39.155Z,1.60
2023-05-10T16:20:08.604Z,1.63
2023-05-10T16:22:37.164Z,1.67
2023-05-10T16:25:05.971Z,1.50
2023-05-10T16:27:35.450Z,1.50
2023-05-10T16:30:04.045Z,1.48
2023-05-10T16:32:34.340Z,1.70
2023-05-10T16:35:02.388Z,1.60
2023-05-10T16:37:30.400Z,1.80
2023-05-10T16:40:01.079Z,1.90
2023-05-10T16:42:29.311Z,1.70
2023-05-10T16:45:07.383Z,1.90
2023-05-10T16:47:35.586Z,1.70
2023-05-10T16:50:05.173Z,1.70
2023-05-10T16:52:33.605Z,1.90
2023-05-10T16:55:01.762Z,2.05
2023-05-10T16:57:29.853Z,2.08
2023-05-10T16:59:58.016Z,2.00
2023-05-10T17:02:27.687Z,1.92
2023-05-10T17:04:56.272Z,2.00
2023-05-10T17:07:26.130Z,1.52
2023-05-10T17:09:54.469Z,1.85
2023-05-10T17:12:22.569Z,2.22
2023-05-10T17:14:53.595Z,1.90
2023-05-10T17:17:22.004Z,1.98
2023-05-10T17:19:51.497Z,1.70
2023-05-10T17:22:22.415Z,1.75
2023-05-10T17:24:50.531Z,1.40
2023-05-10T17:27:18.653Z,1.90
2023-05-10T17:29:46.818Z,1.67
2023-05-10T17:32:14.927Z,1.73
2023-05-10T17:34:42.987Z,1.80
2023-05-10T17:37:12.510Z,1.77
2023-05-10T17:39:40.610Z,1.67
2023-05-10T17:42:08.779Z,1.55
2023-05-10T17:44:39.036Z,2.10
2023-05-10T17:47:07.400Z,1.90
2023-05-10T17:49:35.533Z,1.92
2023-05-10T17:52:03.590Z,1.90
2023-05-10T17:54:33.035Z,1.90
2023-05-10T17:57:01.719Z,2.05
2023-05-10T17:59:29.833Z,2.10
2023-05-10T18:01:57.926Z,2.33
2023-05-10T18:04:26.227Z,2.30
2023-05-10T18:07:00.966Z,2.25
2023-05-10T18:09:29.853Z,2.38
2023-05-10T18:11:59.282Z,2.72
2023-05-10T18:14:39.903Z,2.50
2023-05-10T18:17:09.231Z,2.40
2023-05-10T18:19:37.464Z,2.40
2023-05-10T18:22:06.548Z,2.15
2023-05-10T18:24:39.528Z,2.38
2023-05-10T18:27:10.277Z,2.20
2023-05-10T18:29:38.497Z,2.30
2023-05-10T18:32:07.484Z,3.10
2023-05-10T18:34:35.579Z,2.90
2023-05-10T18:37:07.437Z,2.83
2023-05-10T18:39:36.004Z,3.10
2023-05-10T18:42:05.103Z,2.67
2023-05-10T18:44:34.737Z,2.83
2023-05-10T18:47:02.781Z,3.20
2023-05-10T18:49:30.923Z,3.15
2023-05-10T18:51:59.039Z,3.03
2023-05-10T18:54:29.893Z,3.05
2023-05-10T18:56:58.860Z,3.20
2023-05-10T18:59:28.082Z,3.17
2023-05-10T19:01:57.830Z,3.35
2023-05-10T19:04:26.069Z,4.07
2023-05-10T19:06:54.149Z,3.63
2023-05-10T19:09:25.417Z,3.85
2023-05-10T19:11:53.529Z,3.90
2023-05-10T19:14:25.329Z,3.50
2023-05-10T19:16:54.325Z,3.78
2023-05-10T19:19:23.888Z,4.40
2023-05-10T19:21:51.969Z,4.25
2023-05-10T19:24:24.595Z,4.75
2023-05-10T19:26:52.696Z,4.85
2023-05-10T19:29:20.783Z,5.20
2023-05-10T19:31:49.243Z,4.65
2023-05-10T19:34:17.412Z,4.95
2023-05-10T19:36:46.888Z,4.75
2023-05-10T19:39:15.093Z,4.43
2023-05-10T19:41:43.288Z,4.30
2023-05-10T19:44:11.335Z,4.80
2023-05-10T19:46:39.424Z,4.95
2023-05-10T19:49:07.917Z,4.70
2023-05-10T19:51:35.969Z,4.70
2023-05-10T19:54:08.422Z,4.45
2023-05-10T19:56:36.525Z,4.85
2023-05-10T19:59:04.664Z,4.43
2023-05-10T20:01:32.959Z,4.38
2023-05-10T20:04:01.155Z,5.10
2023-05-10T20:06:29.340Z,5.07
2023-05-10T20:09:00.394Z,4.78
2023-05-10T20:11:30.109Z,5.30
2023-05-10T20:13:58.308Z,5.72
2023-05-10T20:16:26.963Z,5.25
2023-05-10T20:18:55.350Z,5.78
2023-05-10T20:21:23.973Z,6.18
2023-05-10T20:23:54.349Z,5.70
2023-05-10T20:26:22.728Z,5.88
2023-05-10T20:28:52.466Z,5.97
2023-05-10T20:31:20.450Z,5.88
2023-05-10T20:33:48.556Z,6.32
2023-05-10T20:36:16.789Z,6.10
2023-05-10T20:38:45.059Z,6.85
2023-05-10T20:41:13.070Z,6.65
2023-05-10T20:43:41.368Z,6.85
2023-05-10T20:46:11.459Z,7.25
2023-05-10T20:48:39.799Z,6.68
2023-05-10T20:51:07.847Z,7.10
2023-05-10T20:53:35.843Z,7.63
2023-05-10T20:56:03.949Z,6.38
2023-05-10T20:58:35.574Z,7.20
2023-05-10T21:01:04.125Z,6.97
2023-05-10T21:03:33.797Z,7.40
2023-05-10T21:06:01.936Z,7.63
2023-05-10T21:08:29.996Z,7.55
2023-05-10T21:10:58.108Z,7.40
2023-05-10T21:13:26.471Z,7.38
2023-05-10T21:15:55.257Z,8.15
2023-05-10T21:18:23.457Z,7.88
2023-05-10T21:20:53.037Z,7.97
2023-05-10T21:23:21.116Z,8.32
2023-05-10T21:25:51.482Z,8.27
2023-05-10T21:28:19.619Z,8.68
2023-05-10T21:30:47.960Z,8.50
2023-05-10T21:33:16.206Z,9.23
2023-05-10T21:35:44.297Z,7.78
2023-05-10T21:38:13.745Z,7.78
2023-05-10T21:40:41.780Z,8.10
2023-05-10T21:43:11.305Z,8.50
2023-05-10T21:45:39.829Z,8.23
2023-05-10T21:48:08.001Z,8.48
2023-05-10T21:50:38.357Z,8.73
2023-05-10T21:53:06.965Z,8.10
2023-05-10T21:55:36.543Z,9.55
2023-05-10T21:58:07.654Z,9.23
2023-05-10T22:00:35.693Z,9.63
2023-05-10T22:03:03.855Z,10.10
2023-05-10T22:05:32.079Z,10.07
2023-05-10T22:08:00.143Z,10.00
2023-05-10T22:10:28.255Z,10.80
2023-05-10T22:12:58.272Z,11.13
2023-05-10T22:15:26.532Z,12.18
2023-05-10T22:17:54.657Z,12.43
2023-05-10T22:20:22.865Z,12.13
2023-05-10T22:22:51.323Z,12.30
2023-05-10T22:25:19.570Z,13.93
2023-05-10T22:27:47.742Z,13.48
2023-05-10T22:30:17.641Z,13.90
2023-05-10T22:32:46.505Z,13.93
2023-05-10T22:35:14.836Z,14.70
2023-05-10T22:37:42.871Z,14.70
2023-05-10T22:40:12.061Z,14.68
2023-05-10T22:42:40.212Z,15.60
2023-05-10T22:45:09.824Z,16.20
2023-05-10T22:47:39.481Z,16.85
2023-05-10T22:50:10.440Z,16.30
2023-05-10T22:52:39.884Z,16.60
2023-05-10T22:55:08.703Z,16.30
2023-05-10T22:57:37.184Z,16.25
2023-05-10T23:00:06.278Z,17.23
2023-05-10T23:02:35.173Z,16.85
2023-05-10T23:05:05.461Z,16.45
2023-05-10T23:07:34.005Z,16.00
2023-05-10T23:10:02.189Z,17.17
2023-05-10T23:12:31.372Z,17.33
2023-05-10T23:14:59.709Z,18.13
2023-05-10T23:17:28.105Z,17.08
2023-05-10T23:19:56.303Z,18.63
2023-05-10T23:22:25.828Z,19.08
2023-05-10T23:24:53.937Z,19.30
2023-05-10T23:27:22.540Z,18.83
2023-05-10T23:29:55.571Z,19.02
2023-05-10T23:32:24.201Z,18.67
2023-05-10T23:34:52.343Z,19.63
2023-05-10T23:37:20.574Z,20.88
2023-05-10T23:39:50.029Z,19.35
2023-05-10T23:42:18.069Z,21.05
2023-05-10T23:44:46.833Z,21.58
2023-05-10T23:47:15.090Z,22.83
2023-05-10T23:49:43.297Z,21.83
2023-05-10T23:52:11.451Z,21.70
2023-05-10T23:54:39.490Z,23.98
2023-05-10T23:57:11.230Z,22.25
2023-05-10T23:59:39.363Z,22.90
